Time;durP1;ratioP1;P1;durP2;ratioP2;P2;SDS_P1;SDS_P2;PMS_P1;PMS_P2;Temp;Humidity;BMP_temperature;BMP_pressure;BME280_temperature;BME280_humidity;BME280_pressure;Samples;Min_cycle;Max_cycle;Signal;HPM_P1;HPM_P2
2022/08/29 00:01:58;;;;;;;7.40;6.80;;;;;;;17.56;100.00;98296.22;5073523;28;20212;-71
2022/08/29 00:04:24;;;;;;;7.70;7.00;;;;;;;17.61;100.00;98294.38;5073502;28;20295;-72
2022/08/29 00:06:50;;;;;;;7.33;6.63;;;;;;;17.57;100.00;98289.75;5073475;28;20308;-71
2022/08/29 00:09:17;;;;;;;7.47;6.77;;;;;;;17.63;100.00;98294.91;5073572;28;20228;-71
2022/08/29 00:11:43;;;;;;;8.80;6.90;;;;;;;17.44;100.00;98288.31;5073400;28;20215;-71
2022/08/29 00:14:09;;;;;;;7.57;6.87;;;;;;;17.46;100.00;98291.53;5073156;28;20204;-71
2022/08/29 00:16:36;;;;;;;7.47;6.60;;;;;;;17.40;100.00;98289.91;5073436;28;20206;-71
2022/08/29 00:19:02;;;;;;;6.77;6.17;;;;;;;17.34;100.00;98292.75;5072974;28;20231;-71
2022/08/29 00:21:29;;;;;;;10.23;6.90;;;;;;;17.29;100.00;98298.91;5073109;28;20276;-71
2022/08/29 00:23:55;;;;;;;7.13;6.47;;;;;;;17.30;100.00;98299.72;5073835;28;20211;-71
2022/08/29 00:26:21;;;;;;;7.60;6.90;;;;;;;17.30;100.00;98300.53;5077260;28;20307;-71
2022/08/29 00:28:48;;;;;;;7.10;6.50;;;;;;;17.30;100.00;98303.22;5077280;28;20571;-71
2022/08/29 00:31:14;;;;;;;8.07;7.07;;;;;;;17.32;100.00;98303.75;5077337;28;20211;-71
2022/08/29 00:33:41;;;;;;;9.77;6.93;;;;;;;17.36;100.00;98304.06;5077539;28;20213;-71
2022/08/29 00:36:09;;;;;;;7.60;6.77;;;;;;;17.24;100.00;98303.44;5077144;28;20203;-71
2022/08/29 00:38:36;;;;;;;7.40;6.50;;;;;;;17.23;100.00;98307.97;5077186;28;20578;-71
2022/08/29 00:41:04;;;;;;;7.50;6.80;;;;;;;17.22;100.00;98305.53;5076773;28;20745;-71
2022/08/29 00:43:36;;;;;;;7.93;7.10;;;;;;;17.18;100.00;98299.06;5076758;28;20685;-71
2022/08/29 00:46:24;;;;;;;9.10;6.93;;;;;;;17.31;100.00;98294.09;5076936;28;20224;-71
2022/08/29 00:48:58;;;;;;;8.43;6.73;;;;;;;17.28;100.00;98294.59;5059195;28;20189;-71
2022/08/29 00:51:25;;;;;;;8.80;6.73;;;;;;;17.32;100.00;98303.75;5076874;28;20644;-71
2022/08/29 00:54:01;;;;;;;7.80;6.57;;;;;;;17.28;100.00;98305.34;5077381;28;20200;-71
2022/08/29 00:56:28;;;;;;;7.07;6.33;;;;;;;17.28;100.00;98305.34;5076855;28;20191;-71
2022/08/29 00:59:03;;;;;;;7.27;6.57;;;;;;;17.15;100.00;98303.06;5076680;28;20207;-71
2022/08/29 01:01:30;;;;;;;9.93;6.87;;;;;;;17.06;100.00;98307.28;5059467;28;20295;-71
2022/08/29 01:03:56;;;;;;;7.20;6.43;;;;;;;17.04;100.00;98317.47;5076360;28;20300;-71
2022/08/29 01:06:26;;;;;;;7.07;6.47;;;;;;;17.07;100.00;98314.28;5076572;28;20307;-71
2022/08/29 01:08:53;;;;;;;7.93;6.23;;;;;;;17.03;100.00;98313.19;5076457;28;20291;-71
2022/08/29 01:14:05;;;;;;;8.40;7.60;;;;;;;16.96;100.00;98317.13;5076541;28;20188;-71
2022/08/29 01:16:33;;;;;;;9.27;6.80;;;;;;;16.97;100.00;98316.84;5076142;28;20641;-71
2022/08/29 01:19:03;;;;;;;9.03;6.83;;;;;;;17.06;100.00;98315.34;5076809;28;20215;-71
2022/08/29 01:21:52;;;;;;;7.63;6.93;;;;;;;17.07;100.00;98316.97;5076414;28;20212;-71
2022/08/29 01:24:35;;;;;;;7.50;6.67;;;;;;;17.11;100.00;98314.59;5076310;28;20188;-71
2022/08/29 01:27:02;;;;;;;7.60;7.00;;;;;;;17.19;100.00;98312.25;5059843;28;20604;-71
2022/08/29 01:29:28;;;;;;;7.30;6.60;;;;;;;17.16;100.00;98312.78;5076171;28;20316;-71
2022/08/29 01:31:55;;;;;;;8.27;7.50;;;;;;;17.50;96.34;98319.53;5076155;28;20243;-71
2022/08/29 01:34:21;;;;;;;10.63;7.57;;;;;;;17.60;95.09;98318.81;5076046;28;20567;-71
2022/08/29 01:36:57;;;;;;;8.90;7.80;;;;;;;17.54;96.09;98312.59;5075444;28;20291;-71
2022/08/29 01:39:28;;;;;;;7.93;7.03;;;;;;;17.40;98.62;98318.63;5075693;28;20252;-72
2022/08/29 01:41:56;;;;;;;8.37;7.33;;;;;;;17.35;98.89;98316.69;5075954;28;20230;-71
2022/08/29 01:44:25;;;;;;;8.87;7.03;;;;;;;17.32;97.24;98321.78;5075634;28;20544;-71
2022/08/29 01:46:54;;;;;;;9.90;7.43;;;;;;;17.34;97.14;98325.84;5075533;28;20221;-71
2022/08/29 01:49:22;;;;;;;8.50;7.33;;;;;;;17.30;97.58;98322.03;5075518;28;20224;-71
2022/08/29 01:51:49;;;;;;;7.60;6.90;;;;;;;17.26;99.16;98318.22;5075801;28;20216;-71
2022/08/29 01:54:17;;;;;;;8.60;7.10;;;;;;;17.25;99.36;98323.84;5075780;28;20631;-71
2022/08/29 01:56:48;;;;;;;9.37;7.83;;;;;;;17.23;97.69;98324.09;5075719;28;20233;-71
2022/08/29 01:59:17;;;;;;;9.57;6.70;;;;;;;17.25;97.49;98326.53;5075674;28;20231;-71
2022/08/29 02:02:10;;;;;;;7.70;7.00;;;;;;;17.20;100.00;98329.19;5075635;28;20303;-71
2022/08/29 02:04:39;;;;;;;7.30;6.60;;;;;;;17.21;99.33;98331.63;5067230;28;20208;-71
2022/08/29 02:07:06;;;;;;;8.07;7.30;;;;;;;17.05;100.00;98321.78;5075801;28;20259;-71
2022/08/29 02:09:32;;;;;;;6.90;6.30;;;;;;;17.06;99.63;98323.38;5075133;28;20584;-71
2022/08/29 02:12:05;;;;;;;7.90;7.10;;;;;;;17.03;98.40;98318.56;5075155;28;20655;-71
2022/08/29 02:14:33;;;;;;;7.87;7.13;;;;;;;17.03;98.52;98323.09;5075397;28;20197;-71
2022/08/29 02:17:04;;;;;;;7.53;6.73;;;;;;;17.04;99.31;98327.41;5075019;28;20208;-71
2022/08/29 02:19:31;;;;;;;8.13;7.20;;;;;;;16.94;100.00;98325.44;5075007;28;20639;-71
2022/08/29 02:21:58;;;;;;;8.77;7.27;;;;;;;16.94;99.89;98322.75;5074946;28;20200;-71
2022/08/29 02:24:25;;;;;;;7.73;7.07;;;;;;;16.89;100.00;98328.06;5075195;28;20204;-71
2022/08/29 02:26:52;;;;;;;7.97;6.87;;;;;;;16.97;99.65;98319.53;5075047;28;20227;-71
2022/08/29 02:29:18;;;;;;;7.63;6.53;;;;;;;16.90;100.00;98332.38;5075004;28;20320;-71
2022/08/29 02:31:45;;;;;;;7.67;6.77;;;;;;;16.71;100.00;98323.03;5075286;28;20208;-71
2022/08/29 02:34:11;;;;;;;7.23;6.53;;;;;;;16.68;100.00;98318.16;5074549;28;20208;-71
2022/08/29 02:36:38;;;;;;;7.73;7.03;;;;;;;16.73;100.00;98318.22;5074908;28;20201;-71
2022/08/29 02:39:05;;;;;;;7.87;7.07;;;;;;;16.73;100.00;98318.22;5074790;28;20299;-71
2022/08/29 02:41:31;;;;;;;9.23;6.93;;;;;;;16.78;99.25;98309.41;5074807;28;20299;-71
2022/08/29 02:43:58;;;;;;;7.30;6.70;;;;;;;16.85;96.95;98318.06;5074721;28;20255;-71
2022/08/29 02:46:25;;;;;;;7.70;6.23;;;;;;;16.83;96.22;98315.63;5074050;28;20225;-71
2022/08/29 02:48:51;;;;;;;7.60;6.87;;;;;;;16.83;98.17;98314.84;5074330;28;20686;-71
2022/08/29 02:51:23;;;;;;;7.80;6.77;;;;;;;16.75;98.58;98318.78;5074307;28;20204;-71
2022/08/29 02:53:49;;;;;;;7.17;6.40;;;;;;;16.84;97.83;98317.28;5074878;28;20195;-71
2022/08/29 02:56:16;;;;;;;9.37;6.57;;;;;;;16.83;97.02;98310.25;5074374;28;20295;-71
2022/08/29 02:58:43;;;;;;;8.03;6.23;;;;;;;16.80;98.32;98310.78;5074398;28;20212;-71
2022/08/29 03:01:10;;;;;;;6.20;5.57;;;;;;;16.79;97.10;98314.50;5074456;28;20207;-71
2022/08/29 03:03:36;;;;;;;10.20;6.37;;;;;;;16.72;96.20;98316.59;5074028;28;20559;-71
2022/08/29 03:06:03;;;;;;;7.10;6.43;;;;;;;16.75;97.34;98307.22;5073742;28;20561;-71
2022/08/29 03:08:30;;;;;;;7.37;6.67;;;;;;;16.73;98.42;98309.38;5073970;28;20204;-71
2022/08/29 03:10:56;;;;;;;7.33;6.63;;;;;;;16.69;99.30;98316.28;5074175;28;20315;-71
2022/08/29 03:13:22;;;;;;;9.57;6.70;;;;;;;16.62;97.18;98316.50;5074591;28;20651;-71
2022/08/29 03:15:49;;;;;;;7.47;6.33;;;;;;;16.64;97.67;98318.94;5073777;28;20200;-71
2022/08/29 03:18:16;;;;;;;9.47;6.10;;;;;;;16.58;97.01;98312.69;5073977;28;20204;-71
2022/08/29 03:20:42;;;;;;;8.93;6.63;;;;;;;16.57;96.55;98316.44;5074009;28;20649;-71
2022/08/29 03:23:09;;;;;;;11.07;6.17;;;;;;;16.60;95.26;98309.75;5073916;28;20204;-71
2022/08/29 03:25:36;;;;;;;10.63;6.33;;;;;;;16.57;95.31;98307.56;5073899;28;20311;-71
2022/08/29 03:28:03;;;;;;;9.57;6.03;;;;;;;16.62;95.07;98311.13;5073724;28;20696;-71
2022/08/29 03:30:30;;;;;;;6.53;5.80;;;;;;;16.56;97.80;98312.09;5073824;28;20311;-71
2022/08/29 03:32:57;;;;;;;6.80;6.10;;;;;;;16.47;96.57;98302.88;5073764;28;20299;-71
2022/08/29 03:35:24;;;;;;;8.50;6.40;;;;;;;16.42;99.33;98313.53;5073633;28;20300;-71
2022/08/29 03:37:53;;;;;;;6.40;5.80;;;;;;;16.33;100.00;98311.53;5073222;28;20685;-71
2022/08/29 03:40:20;;;;;;;7.67;6.00;;;;;;;16.36;97.25;98313.69;5073250;28;20568;-71
2022/08/29 03:42:47;;;;;;;8.53;6.13;;;;;;;16.43;98.89;98306.31;5073194;28;20215;-71
2022/08/29 03:45:17;;;;;;;6.40;5.80;;;;;;;16.34;96.43;98316.66;5073312;28;20201;-71
2022/08/29 03:47:44;;;;;;;8.03;5.77;;;;;;;16.40;96.17;98317.53;5073304;28;20224;-71
2022/08/29 03:50:13;;;;;;;7.87;6.33;;;;;;;16.34;100.00;98318.50;5073574;28;20310;-71
2022/08/29 03:52:41;;;;;;;9.03;6.40;;;;;;;16.20;100.00;98323.41;5073623;28;20299;-71
2022/08/29 03:55:09;;;;;;;8.33;6.13;;;;;;;16.26;97.51;98330.50;5073272;28;20659;-71
2022/08/29 03:57:35;;;;;;;8.70;6.20;;;;;;;16.24;97.61;98329.91;5073031;28;20239;-71
2022/08/29 04:00:10;;;;;;;12.00;6.30;;;;;;;16.24;96.59;98332.59;5073415;28;20230;-71
2022/08/29 04:02:37;;;;;;;7.77;5.80;;;;;;;16.27;95.50;98334.78;5073726;28;20188;-71
2022/08/29 04:05:09;;;;;;;8.30;6.07;;;;;;;16.28;95.76;98322.19;5073024;28;20715;-70
2022/08/29 04:08:02;;;;;;;6.53;5.80;;;;;;;16.20;96.00;98319.94;5073233;28;20652;-70
2022/08/29 04:10:36;;;;;;;8.47;5.53;;;;;;;16.26;95.89;98324.31;5070321;28;20661;-70
2022/08/29 04:13:03;;;;;;;8.00;6.73;;;;;;;16.22;94.82;98329.34;5073330;28;20185;-70
2022/08/29 04:15:31;;;;;;;7.03;5.47;;;;;;;16.21;94.87;98324.22;5073200;28;20214;-70
2022/08/29 04:17:59;;;;;;;7.47;5.47;;;;;;;16.23;94.77;98327.47;5073166;28;20200;-70
2022/08/29 04:20:29;;;;;;;8.87;6.00;;;;;;;16.20;94.28;98323.41;5072901;28;20250;-70
2022/08/29 04:22:57;;;;;;;9.63;5.97;;;;;;;16.12;95.07;98331.09;5072940;28;20205;-70
2022/08/29 04:25:26;;;;;;;8.90;5.93;;;;;;;16.08;95.67;98336.13;5073101;28;20208;-71
2022/08/29 04:27:54;;;;;;;6.17;5.57;;;;;;;16.06;96.11;98329.41;5072703;28;20583;-71
2022/08/29 04:30:23;;;;;;;6.53;5.90;;;;;;;16.06;95.96;98340.91;5072340;28;20224;-69
2022/08/29 04:32:50;;;;;;;10.03;5.80;;;;;;;16.06;96.57;98342.81;5072791;28;20201;-69
2022/08/29 04:35:16;;;;;;;6.40;5.77;;;;;;;16.02;97.00;98345.16;5072837;28;20211;-70
2022/08/29 04:37:44;;;;;;;9.10;6.57;;;;;;;16.00;96.77;98354.50;5073461;28;20295;-69
2022/08/29 04:40:14;;;;;;;6.30;5.50;;;;;;;16.01;97.09;98350.78;5072654;28;20305;-69
2022/08/29 04:42:41;;;;;;;9.20;6.10;;;;;;;16.02;97.65;98347.84;5072660;28;20185;-69
2022/08/29 04:45:11;;;;;;;6.17;5.57;;;;;;;16.03;97.56;98343.28;5072588;28;20208;-69
2022/08/29 04:47:38;;;;;;;7.97;5.97;;;;;;;16.01;97.00;98337.38;5072203;28;20692;-69
2022/08/29 04:50:06;;;;;;;8.30;5.60;;;;;;;16.09;95.92;98342.28;5072162;28;20729;-69
2022/08/29 04:52:32;;;;;;;7.07;6.27;;;;;;;15.98;96.58;98344.06;5072707;28;20289;-69
2022/08/29 04:54:59;;;;;;;7.37;5.27;;;;;;;15.98;97.74;98336.00;5072605;28;20292;-69
2022/08/29 04:57:25;;;;;;;6.70;5.67;;;;;;;15.95;99.25;98339.16;5072718;28;20205;-69
2022/08/29 04:59:57;;;;;;;8.30;5.73;;;;;;;16.01;100.00;98340.84;5072509;28;20225;-69
2022/08/29 05:02:24;;;;;;;7.03;5.67;;;;;;;16.01;99.38;98343.53;5072610;28;20555;-69
2022/08/29 05:04:52;;;;;;;9.37;6.00;;;;;;;16.00;99.90;98347.28;5072243;28;20200;-69
2022/08/29 05:07:24;;;;;;;9.90;5.90;;;;;;;15.96;100.00;98351.50;5072235;28;20220;-69
2022/08/29 05:09:57;;;;;;;7.13;5.47;;;;;;;15.96;100.00;98353.41;5072692;28;20249;-69
2022/08/29 05:12:24;;;;;;;8.23;5.90;;;;;;;15.96;100.00;98362.22;5075625;28;20559;-69
2022/08/29 05:14:51;;;;;;;6.73;5.57;;;;;;;16.03;100.00;98365.56;5075833;28;20211;-69
2022/08/29 05:17:18;;;;;;;7.73;5.57;;;;;;;16.07;100.00;98364.03;5075712;28;20200;-69
2022/08/29 05:19:44;;;;;;;10.20;6.00;;;;;;;16.12;99.35;98363.28;5075593;28;20236;-70
2022/08/29 05:22:14;;;;;;;8.13;5.53;;;;;;;16.16;95.48;98359.88;5075764;28;20295;-69
2022/08/29 05:24:40;;;;;;;9.07;5.80;;;;;;;16.17;94.10;98360.66;5075786;28;20200;-69
2022/08/29 05:27:13;;;;;;;8.93;5.90;;;;;;;16.25;93.68;98368.28;5075210;28;20570;-69
2022/08/29 05:29:41;;;;;;;9.77;5.90;;;;;;;16.18;94.06;98368.47;5074971;28;20221;-69
2022/08/29 05:32:10;;;;;;;8.07;5.87;;;;;;;16.24;93.39;98364.78;5072728;28;20289;-69
2022/08/29 05:34:38;;;;;;;7.30;5.50;;;;;;;16.35;92.80;98368.44;5074993;28;20304;-69
2022/08/29 05:37:09;;;;;;;11.03;5.63;;;;;;;16.34;92.69;98372.19;5074844;28;20671;-69
2022/08/29 05:39:37;;;;;;;6.47;5.30;;;;;;;16.40;92.72;98368.53;5076336;28;20323;-69
2022/08/29 05:42:05;;;;;;;9.57;6.10;;;;;;;16.45;92.32;98373.97;5075356;28;20205;-69
2022/08/29 05:44:31;;;;;;;8.17;5.93;;;;;;;16.58;91.51;98376.28;5075347;28;20208;-69
2022/08/29 05:46:59;;;;;;;6.87;4.93;;;;;;;16.67;92.59;98370.22;5075212;28;20713;-71
2022/08/29 05:49:26;;;;;;;7.33;5.50;;;;;;;16.51;89.22;98368.41;5075463;28;20221;-71
2022/08/29 05:51:53;;;;;;;7.63;5.37;;;;;;;16.51;88.34;98367.63;5075287;28;20254;-71
2022/08/29 05:54:21;;;;;;;10.97;6.30;;;;;;;16.64;87.77;98369.94;5075034;28;20731;-71
2022/08/29 05:56:47;;;;;;;9.67;5.60;;;;;;;16.71;87.95;98379.41;5075502;28;20296;-71
2022/08/29 05:59:14;;;;;;;11.30;6.50;;;;;;;16.64;86.97;98376.09;5074948;28;20234;-71
2022/08/29 06:01:40;;;;;;;7.37;5.97;;;;;;;16.69;87.00;98378.84;5075286;28;20209;-71
2022/08/29 06:04:07;;;;;;;7.80;5.33;;;;;;;16.61;86.65;98383.84;5074858;28;20299;-71
2022/08/29 06:06:33;;;;;;;7.80;5.47;;;;;;;16.69;86.50;98389.56;5075526;28;20207;-71
2022/08/29 06:09:00;;;;;;;8.83;6.10;;;;;;;16.81;86.51;98390.28;5075100;28;20228;-71
2022/08/29 06:11:31;;;;;;;7.87;5.77;;;;;;;16.69;86.27;98392.25;5074973;28;20315;-71
2022/08/29 06:13:59;;;;;;;7.77;5.90;;;;;;;16.72;86.56;98396.31;5075083;28;20606;-71
2022/08/29 06:16:27;;;;;;;10.60;6.10;;;;;;;16.78;86.47;98398.81;5075933;28;20205;-71
2022/08/29 06:18:54;;;;;;;7.63;5.83;;;;;;;16.88;86.36;98400.81;5074819;28;20201;-71
2022/08/29 06:21:20;;;;;;;8.57;6.30;;;;;;;17.00;87.46;98398.81;5073609;28;20758;-71
2022/08/29 06:23:47;;;;;;;7.70;5.97;;;;;;;17.00;87.02;98401.50;5074396;28;20208;-71
2022/08/29 06:26:15;;;;;;;10.97;6.07;;;;;;;17.10;86.79;98404.31;5074544;28;20219;-71
2022/08/29 06:28:45;;;;;;;9.60;5.90;;;;;;;17.00;86.29;98399.63;5074133;28;20316;-71
2022/08/29 06:31:13;;;;;;;9.57;6.03;;;;;;;17.09;86.14;98398.13;5074448;28;20307;-72
2022/08/29 06:33:39;;;;;;;8.07;6.10;;;;;;;17.24;88.63;98400.97;5074043;28;20639;-71
2022/08/29 06:36:08;;;;;;;7.67;5.80;;;;;;;17.36;87.54;98414.25;5074355;28;20299;-71
2022/08/29 06:38:35;;;;;;;8.10;6.77;;;;;;;17.37;86.43;98411.31;5074655;28;20237;-71
2022/08/29 06:41:11;;;;;;;15.47;6.93;;;;;;;17.49;86.81;98403.94;5074523;28;20309;-69
2022/08/29 06:43:39;;;;;;;9.13;6.80;;;;;;;17.41;86.73;98412.47;5074688;28;20371;-69
2022/08/29 06:46:06;;;;;;;9.40;6.80;;;;;;;17.37;87.24;98405.16;5074395;28;20204;-69
2022/08/29 06:48:33;;;;;;;8.80;6.87;;;;;;;17.32;86.98;98413.94;5074361;28;20220;-69
2022/08/29 06:51:03;;;;;;;9.80;6.80;;;;;;;17.49;86.80;98414.69;5073895;28;20597;-70
2022/08/29 06:53:30;;;;;;;8.27;6.73;;;;;;;17.63;88.61;98410.53;5074346;28;20295;-71
2022/08/29 06:55:56;;;;;;;8.93;6.97;;;;;;;17.61;85.42;98411.84;5074805;28;20299;-71
2022/08/29 06:58:23;;;;;;;9.97;6.40;;;;;;;17.60;85.36;98413.72;5073852;28;20284;-72
2022/08/29 07:00:49;;;;;;;9.40;6.90;;;;;;;17.59;85.21;98413.97;5074094;28;20254;-71
2022/08/29 07:03:15;;;;;;;10.80;6.90;;;;;;;17.69;85.31;98414.09;5074120;28;20295;-71
2022/08/29 07:05:42;;;;;;;8.00;6.60;;;;;;;17.80;84.69;98410.41;5074187;28;20308;-71
2022/08/29 07:08:08;;;;;;;8.90;6.53;;;;;;;17.84;84.21;98414.22;5073964;28;20224;-71
2022/08/29 07:10:34;;;;;;;9.23;6.67;;;;;;;18.02;83.61;98413.81;5073725;28;20733;-72
2022/08/29 07:13:01;;;;;;;9.70;7.07;;;;;;;18.17;83.77;98413.91;5073952;28;20201;-72
2022/08/29 07:15:27;;;;;;;9.93;7.07;;;;;;;18.27;82.61;98416.72;5073761;28;20208;-71
2022/08/29 07:17:53;;;;;;;9.87;7.17;;;;;;;18.38;83.19;98419.25;5073607;28;20656;-69
2022/08/29 07:20:20;;;;;;;8.93;7.00;;;;;;;18.38;82.10;98413.03;5073682;28;20236;-69
2022/08/29 07:22:50;;;;;;;8.90;7.30;;;;;;;18.74;81.64;98425.63;5073652;28;20295;-70
2022/08/29 07:25:16;;;;;;;9.00;7.23;;;;;;;18.69;80.73;98425.59;5073573;28;20211;-69
2022/08/29 07:27:43;;;;;;;11.57;7.70;;;;;;;18.99;80.06;98421.16;5073308;28;20232;-70
2022/08/29 07:30:10;;;;;;;8.30;7.40;;;;;;;19.15;78.91;98420.16;5073614;28;20260;-69
2022/08/29 07:32:36;;;;;;;10.60;7.13;;;;;;;19.01;81.43;98421.69;5073234;28;20205;-69
2022/08/29 07:35:03;;;;;;;10.80;7.63;;;;;;;19.02;80.11;98426.03;5073033;28;20519;-70
2022/08/29 07:37:29;;;;;;;11.13;7.53;;;;;;;19.13;80.97;98426.84;5073259;28;20293;-69
2022/08/29 07:39:55;;;;;;;11.23;8.03;;;;;;;19.18;78.77;98429.59;5073742;28;20230;-69
2022/08/29 07:42:22;;;;;;;9.00;7.57;;;;;;;19.36;79.73;98424.53;5073201;28;20619;-70
2022/08/29 07:44:48;;;;;;;11.30;7.03;;;;;;;19.37;78.44;98436.94;5073421;28;20690;-69
2022/08/29 07:47:15;;;;;;;10.40;7.57;;;;;;;19.31;79.77;98439.88;5073066;28;20205;-69
2022/08/29 07:49:41;;;;;;;11.03;7.70;;;;;;;19.27;80.63;98434.22;5073202;28;20235;-70
2022/08/29 07:52:07;;;;;;;10.27;8.07;;;;;;;19.26;79.26;98437.16;5074182;28;20227;-70
2022/08/29 07:54:34;;;;;;;9.83;7.13;;;;;;;19.35;79.51;98436.41;5073801;28;20201;-69
2022/08/29 07:57:00;;;;;;;10.13;7.43;;;;;;;19.38;79.49;98433.19;5073967;28;20303;-70
2022/08/29 07:59:27;;;;;;;12.70;8.27;;;;;;;19.42;78.38;98436.16;5073026;28;20315;-70
2022/08/29 08:01:53;;;;;;;11.03;8.43;;;;;;;19.43;78.11;98429.69;5074181;28;20295;-69
2022/08/29 08:04:19;;;;;;;7.80;6.80;;;;;;;19.59;78.16;98421.34;5073292;28;20208;-70
2022/08/29 08:06:46;;;;;;;9.83;7.40;;;;;;;19.85;79.63;98429.47;5073136;28;20215;-69
2022/08/29 08:09:14;;;;;;;9.83;7.47;;;;;;;19.85;78.56;98434.88;5072821;28;20598;-69
2022/08/29 08:11:41;;;;;;;9.80;7.53;;;;;;;20.13;75.51;98426.28;5072925;28;20663;-69
2022/08/29 08:14:08;;;;;;;10.77;7.30;;;;;;;20.21;78.13;98433.84;5073158;28;20293;-69
2022/08/29 08:16:35;;;;;;;8.63;7.00;;;;;;;20.30;74.25;98435.69;5072855;28;20668;-72
2022/08/29 08:19:01;;;;;;;9.03;7.73;;;;;;;20.47;72.10;98438.09;5072912;28;20236;-72
2022/08/29 08:21:28;;;;;;;10.20;7.67;;;;;;;20.51;74.71;98433.78;5072620;28;20283;-69
2022/08/29 08:23:54;;;;;;;8.50;7.03;;;;;;;20.58;74.77;98429.69;5073556;28;20215;-70
2022/08/29 08:26:21;;;;;;;10.93;7.70;;;;;;;20.66;73.81;98428.34;5072978;28;20205;-70
2022/08/29 08:28:48;;;;;;;9.33;7.27;;;;;;;20.54;73.92;98428.66;5072727;28;20228;-70
2022/08/29 08:31:15;;;;;;;9.10;7.63;;;;;;;20.59;73.57;98430.53;5072911;28;20209;-70
2022/08/29 08:33:43;;;;;;;7.90;7.10;;;;;;;20.66;72.69;98433.75;5072676;28;20205;-69
2022/08/29 08:36:27;;;;;;;11.63;7.67;;;;;;;20.57;72.99;98435.41;5072588;28;20299;-70
2022/08/29 08:38:54;;;;;;;8.60;7.50;;;;;;;20.70;72.70;98434.84;5072574;28;20189;-69
2022/08/29 08:41:48;;;;;;;10.83;7.20;;;;;;;20.66;71.34;98439.97;5072446;28;20200;-69
2022/08/29 08:44:23;;;;;;;8.60;7.70;;;;;;;20.60;72.52;98434.84;5073265;28;20199;-69
2022/08/29 08:46:58;;;;;;;8.40;6.57;;;;;;;20.75;74.77;98434.81;5076514;28;20231;-70
2022/08/29 08:50:14;;;;;;;9.07;7.10;;;;;;;20.90;73.25;98432.06;5076730;28;20323;-69
2022/08/29 08:52:55;;;;;;;7.87;6.43;;;;;;;21.10;73.49;98429.28;5065609;28;20224;-70
2022/08/29 08:55:39;;;;;;;8.00;7.20;;;;;;;20.80;71.74;98432.09;5076752;28;20550;-70
2022/08/29 08:58:13;;;;;;;9.17;7.00;;;;;;;21.13;71.30;98437.69;5076304;28;20644;-70
2022/08/29 09:01:21;;;;;;;7.57;6.70;;;;;;;21.42;70.71;98433.19;5076097;28;20660;-69
2022/08/29 09:03:50;;;;;;;8.83;6.70;;;;;;;21.64;70.96;98438.19;5076419;28;20582;-69
2022/08/29 09:06:38;;;;;;;7.80;5.70;;;;;;;21.94;69.39;98438.03;5076414;28;20204;-69
2022/08/29 09:09:26;;;;;;;7.97;6.37;;;;;;;22.08;70.22;98433.59;5059956;28;20228;-69
2022/08/29 09:12:20;;;;;;;9.63;6.60;;;;;;;22.15;66.60;98434.09;5058825;28;20234;-70
2022/08/29 09:15:07;;;;;;;8.83;6.73;;;;;;;22.04;68.40;98432.53;5075993;28;20291;-70
2022/08/29 09:17:42;;;;;;;10.23;6.63;;;;;;;22.20;68.09;98434.81;5076007;28;20586;-70
2022/08/29 09:20:15;;;;;;;7.60;6.07;;;;;;;22.40;67.95;98434.66;5075941;28;20240;-70
2022/08/29 09:22:49;;;;;;;9.40;7.03;;;;;;;22.66;65.65;98432.53;5076109;28;20272;-70
2022/08/29 09:25:16;;;;;;;6.77;6.07;;;;;;;22.57;66.11;98435.03;5075942;28;20188;-71
2022/08/29 09:27:43;;;;;;;7.97;5.80;;;;;;;22.61;65.71;98436.09;5076077;28;20209;-72
2022/08/29 09:30:13;;;;;;;6.20;5.60;;;;;;;22.55;65.46;98431.81;5075872;28;20248;-72
2022/08/29 09:33:16;;;;;;;8.33;7.23;;;;;;;22.29;66.26;98430.41;5057651;28;20663;-72
2022/08/29 09:35:51;;;;;;;7.70;5.87;;;;;;;22.63;66.41;98431.22;5075628;28;20548;-72
2022/08/29 09:38:18;;;;;;;6.68;5.60;;;;;;;22.93;64.75;98430.06;5075757;28;20643;-72
2022/08/29 09:41:06;;;;;;;7.93;6.00;;;;;;;23.20;62.85;98422.16;5075560;28;20235;-71
2022/08/29 09:43:38;;;;;;;6.75;5.45;;;;;;;23.34;62.08;98437.41;5075667;28;20552;-72
2022/08/29 09:46:16;;;;;;;6.68;5.95;;;;;;;23.48;61.25;98432.88;5075118;28;20259;-71
2022/08/29 09:48:51;;;;;;;7.65;6.43;;;;;;;23.34;60.51;98436.63;5075175;28;20679;-71
2022/08/29 09:51:27;;;;;;;7.15;6.22;;;;;;;22.95;61.50;98433.28;5057309;28;20242;-72
2022/08/29 09:54:10;;;;;;;7.68;5.90;;;;;;;23.41;62.45;98428.91;5075167;28;20188;-72
2022/08/29 09:56:40;;;;;;;7.03;5.90;;;;;;;23.62;59.65;98432.97;5074852;28;20275;-72
2022/08/29 09:59:27;;;;;;;7.25;5.72;;;;;;;23.36;60.02;98426.28;5057674;28;20235;-72
2022/08/29 10:02:24;;;;;;;7.65;5.80;;;;;;;22.88;60.48;98427.41;5075448;28;20299;-72
2022/08/29 10:05:00;;;;;;;7.68;5.57;;;;;;;23.61;61.13;98432.16;5075386;28;20295;-71
2022/08/29 10:07:45;;;;;;;5.55;4.72;;;;;;;23.79;58.94;98428.63;5074971;28;20651;-71
2022/08/29 10:10:31;;;;;;;8.27;5.20;;;;;;;23.39;58.89;98423.00;5075223;28;20227;-71
2022/08/29 10:13:30;;;;;;;6.68;5.30;;;;;;;23.77;58.62;98425.41;5074997;28;20193;-72
2022/08/29 10:16:39;;;;;;;5.97;4.85;;;;;;;24.15;57.83;98429.72;5067567;28;20210;-72
2022/08/29 10:19:13;;;;;;;6.35;4.32;;;;;;;24.30;54.71;98424.03;5074458;28;20220;-72
2022/08/29 10:21:53;;;;;;;6.35;4.55;;;;;;;24.27;55.39;98430.06;5074941;28;20188;-72
2022/08/29 10:24:55;;;;;;;6.60;5.03;;;;;;;24.39;56.25;98427.69;5058587;28;20557;-72
2022/08/29 10:27:27;;;;;;;6.72;5.00;;;;;;;24.13;56.82;98431.13;5052659;28;20295;-72
2022/08/29 10:30:21;;;;;;;7.68;5.63;;;;;;;24.25;56.62;98434.97;5074105;28;20234;-72
2022/08/29 10:33:18;;;;;;;8.10;5.47;;;;;;;24.33;56.84;98422.63;5074351;28;20193;-72
2022/08/29 10:36:25;;;;;;;7.90;4.30;;;;;;;24.76;55.93;98432.19;5056847;28;20272;-72
2022/08/29 10:38:56;;;;;;;6.38;4.32;;;;;;;24.49;52.85;98430.22;5074528;28;20654;-72
2022/08/29 10:41:59;;;;;;;5.20;4.68;;;;;;;24.68;54.30;98430.97;5074753;28;20193;-72
2022/08/29 10:44:38;;;;;;;4.95;4.47;;;;;;;24.78;53.18;98424.56;5074570;28;20200;-72
2022/08/29 10:47:45;;;;;;;6.03;4.20;;;;;;;24.56;52.79;98421.69;5074367;28;20193;-72
2022/08/29 10:50:20;;;;;;;6.78;4.78;;;;;;;24.63;54.98;98425.63;5074022;28;20717;-72
2022/08/29 10:53:00;;;;;;;5.47;3.90;;;;;;;24.59;51.77;98418.34;5074389;28;20191;-72
2022/08/29 10:56:07;;;;;;;5.22;4.10;;;;;;;24.17;52.65;98424.00;5056237;28;20184;-72
2022/08/29 10:58:42;;;;;;;6.68;4.47;;;;;;;24.49;52.64;98421.25;5073737;28;20235;-71
2022/08/29 11:01:23;;;;;;;6.63;4.50;;;;;;;24.51;52.95;98419.06;5073936;28;20349;-71
2022/08/29 11:04:07;;;;;;;6.85;4.30;;;;;;;24.78;55.96;98413.69;5074005;28;20275;-72
2022/08/29 11:06:43;;;;;;;7.10;4.68;;;;;;;24.90;52.51;98408.53;5074112;28;20276;-72
2022/08/29 11:09:33;;;;;;;7.32;4.45;;;;;;;24.57;54.33;98407.78;5073230;28;20232;-72
2022/08/29 11:12:05;;;;;;;5.85;4.30;;;;;;;25.04;51.96;98404.69;5066177;28;20298;-72
2022/08/29 11:14:40;;;;;;;6.88;4.07;;;;;;;24.79;50.05;98407.13;5074532;28;20200;-72
2022/08/29 11:17:11;;;;;;;6.10;4.25;;;;;;;25.07;51.77;98401.38;5074607;28;20189;-72
2022/08/29 11:20:17;;;;;;;5.28;3.65;;;;;;;24.65;48.84;98398.94;5073816;28;20272;-71
2022/08/29 11:22:46;;;;;;;6.28;3.60;;;;;;;24.63;51.00;98390.28;5073863;28;20687;-72
2022/08/29 11:25:16;;;;;;;4.43;4.05;;;;;;;24.54;50.46;98391.25;5073447;28;20204;-72
2022/08/29 11:28:03;;;;;;;4.80;3.80;;;;;;;24.72;50.75;98383.03;5073483;28;20300;-71
2022/08/29 11:30:40;;;;;;;6.10;4.25;;;;;;;24.39;51.67;98383.38;5073813;28;20263;-71
2022/08/29 11:33:27;;;;;;;6.82;4.30;;;;;;;24.52;51.82;98382.59;5073763;28;20551;-72
2022/08/29 11:36:08;;;;;;;4.30;3.65;;;;;;;24.63;53.08;98392.19;5073406;28;20250;-72
2022/08/29 11:38:57;;;;;;;4.93;3.70;;;;;;;24.90;49.58;98390.31;5073464;28;20231;-72
2022/08/29 11:41:38;;;;;;;6.05;4.13;;;;;;;24.93;49.26;98389.69;5073224;28;20205;-71
2022/08/29 11:44:11;;;;;;;6.95;4.10;;;;;;;24.75;49.11;98381.63;5073798;28;20246;-71
2022/08/29 11:46:43;;;;;;;5.60;4.35;;;;;;;24.79;49.06;98388.09;5073539;28;20284;-71
2022/08/29 11:49:32;;;;;;;6.30;4.18;;;;;;;24.71;49.33;98381.44;5073378;28;20228;-71
2022/08/29 11:52:24;;;;;;;5.22;4.20;;;;;;;25.03;48.97;98377.78;5073355;28;20311;-71
2022/08/29 11:55:22;;;;;;;5.22;3.55;;;;;;;25.23;49.81;98377.38;5073631;28;20185;-71
2022/08/29 11:57:56;;;;;;;5.30;4.43;;;;;;;24.53;48.11;98371.44;5073209;28;20199;-71